createdAt,value
2023-03-08T00:00:00.854Z,100.00
2023-03-08T00:02:27.417Z,100.00
2023-03-08T00:04:57.250Z,100.00
2023-03-08T00:07:24.022Z,100.00
2023-03-08T00:09:50.511Z,100.00
2023-03-08T00:12:19.397Z,100.00
2023-03-08T00:14:46.062Z,100.00
2023-03-08T00:17:15.619Z,100.00
2023-03-08T00:19:42.439Z,100.00
2023-03-08T00:22:09.400Z,100.00
2023-03-08T00:24:35.927Z,100.00
2023-03-08T00:27:02.466Z,100.00
2023-03-08T00:29:29.048Z,100.00
2023-03-08T00:31:55.689Z,100.00
2023-03-08T00:34:22.171Z,100.00
2023-03-08T00:36:48.678Z,100.00
2023-03-08T00:39:16.574Z,100.00
2023-03-08T00:41:43.168Z,100.00
2023-03-08T00:44:09.709Z,100.00
2023-03-08T00:46:36.261Z,100.00
2023-03-08T00:49:04.339Z,100.00
2023-03-08T00:51:30.889Z,100.00
2023-03-08T00:54:11.913Z,100.00
2023-03-08T00:56:38.520Z,100.00
2023-03-08T00:59:05.036Z,100.00
2023-03-08T01:01:31.623Z,100.00
2023-03-08T01:03:58.452Z,100.00
2023-03-08T01:06:24.941Z,100.00
2023-03-08T01:08:51.627Z,100.00
2023-03-08T01:11:22.545Z,100.00
2023-03-08T01:13:49.944Z,100.00
2023-03-08T01:16:17.839Z,100.00
2023-03-08T01:18:44.328Z,100.00
2023-03-08T01:21:10.877Z,100.00
2023-03-08T01:23:37.521Z,100.00
2023-03-08T01:26:05.814Z,100.00
2023-03-08T01:32:07.018Z,100.00
2023-03-08T01:34:33.576Z,100.00
2023-03-08T01:37:00.149Z,100.00
2023-03-08T01:39:26.721Z,100.00
2023-03-08T01:41:53.212Z,100.00
2023-03-08T01:44:22.744Z,100.00
2023-03-08T01:46:49.776Z,100.00
2023-03-08T01:49:19.764Z,100.00
2023-03-08T01:51:46.269Z,100.00
2023-03-08T01:54:16.159Z,100.00
2023-03-08T01:56:45.036Z,100.00
2023-03-08T01:59:11.829Z,100.00
2023-03-08T02:01:39.123Z,100.00
2023-03-08T02:04:06.112Z,100.00
2023-03-08T02:06:32.824Z,100.00
2023-03-08T02:09:03.685Z,100.00
2023-03-08T02:11:30.748Z,100.00
2023-03-08T02:13:57.384Z,100.00
2023-03-08T02:16:23.941Z,100.00
2023-03-08T02:18:51.497Z,100.00
2023-03-08T02:21:18.125Z,100.00
2023-03-08T02:23:44.663Z,100.00
2023-03-08T02:26:11.180Z,100.00
2023-03-08T02:28:37.977Z,100.00
2023-03-08T02:31:04.622Z,100.00
2023-03-08T02:33:32.470Z,100.00
2023-03-08T02:35:59.052Z,100.00
2023-03-08T02:38:25.590Z,100.00
2023-03-08T02:40:53.177Z,100.00
2023-03-08T02:43:20.177Z,100.00
2023-03-08T02:45:46.758Z,100.00
2023-03-08T02:48:14.559Z,100.00
2023-03-08T02:50:41.121Z,100.00
2023-03-08T02:53:07.772Z,100.00
2023-03-08T02:55:37.744Z,100.00
2023-03-08T02:58:05.024Z,100.00
2023-03-08T03:00:31.557Z,100.00
2023-03-08T03:02:58.257Z,100.00
2023-03-08T03:05:24.792Z,100.00
2023-03-08T03:07:51.969Z,100.00
2023-03-08T03:10:18.481Z,100.00
2023-03-08T03:12:45.106Z,100.00
2023-03-08T03:15:11.945Z,100.00
2023-03-08T03:17:38.709Z,100.00
2023-03-08T03:20:09.273Z,100.00
2023-03-08T03:22:36.285Z,100.00
2023-03-08T03:25:02.898Z,100.00
2023-03-08T03:27:29.412Z,100.00
2023-03-08T03:29:55.950Z,100.00
2023-03-08T03:32:22.491Z,100.00
2023-03-08T03:34:49.119Z,100.00
2023-03-08T03:37:15.682Z,100.00
2023-03-08T03:39:42.237Z,100.00
2023-03-08T03:42:08.937Z,100.00
2023-03-08T03:44:35.412Z,100.00
2023-03-08T03:47:02.142Z,100.00
2023-03-08T03:49:28.922Z,100.00
2023-03-08T03:51:55.469Z,100.00
2023-03-08T03:54:22.000Z,100.00
2023-03-08T03:56:48.697Z,100.00
2023-03-08T03:59:15.322Z,100.00
2023-03-08T04:01:41.803Z,100.00
2023-03-08T04:04:09.356Z,100.00
2023-03-08T04:06:35.946Z,100.00
2023-03-08T04:09:07.112Z,100.00
2023-03-08T04:11:35.332Z,100.00
2023-03-08T04:14:01.930Z,100.00
2023-03-08T04:16:29.762Z,100.00
2023-03-08T04:18:57.738Z,100.00
2023-03-08T04:21:24.330Z,100.00
2023-03-08T04:23:51.100Z,100.00
2023-03-08T04:26:17.968Z,100.00
2023-03-08T04:28:44.740Z,100.00
2023-03-08T04:31:15.296Z,100.00
2023-03-08T04:34:54.266Z,100.00
2023-03-08T04:37:20.747Z,100.00
2023-03-08T04:39:47.572Z,100.00
2023-03-08T04:42:14.411Z,100.00
2023-03-08T04:44:40.939Z,100.00
2023-03-08T04:47:07.444Z,100.00
2023-03-08T04:49:33.967Z,100.00
2023-03-08T04:52:58.847Z,100.00
2023-03-08T04:55:25.390Z,100.00
2023-03-08T04:57:51.937Z,100.00
2023-03-08T05:00:18.546Z,100.00
2023-03-08T05:02:45.065Z,100.00
2023-03-08T05:06:40.319Z,100.00
2023-03-08T05:09:06.964Z,100.00
2023-03-08T05:11:33.483Z,100.00
2023-03-08T05:14:00.418Z,100.00
2023-03-08T05:16:27.225Z,100.00
2023-03-08T05:18:53.916Z,100.00
2023-03-08T05:21:21.734Z,100.00
2023-03-08T05:23:48.473Z,100.00
2023-03-08T05:26:15.906Z,100.00
2023-03-08T05:28:42.482Z,100.00
2023-03-08T05:31:11.934Z,100.00
2023-03-08T05:33:39.126Z,100.00
2023-03-08T05:36:06.456Z,100.00
2023-03-08T05:38:33.424Z,100.00
2023-03-08T05:41:01.088Z,100.00
2023-03-08T05:43:27.991Z,100.00
2023-03-08T05:45:55.722Z,100.00
2023-03-08T05:48:22.318Z,100.00
2023-03-08T05:50:48.903Z,100.00
2023-03-08T05:53:15.452Z,100.00
2023-03-08T05:55:41.974Z,100.00
2023-03-08T05:58:08.506Z,100.00
2023-03-08T06:03:11.273Z,100.00
2023-03-08T06:05:37.893Z,100.00
2023-03-08T06:08:04.589Z,100.00
2023-03-08T06:10:31.088Z,100.00
2023-03-08T06:12:57.605Z,100.00
2023-03-08T06:15:24.238Z,100.00
2023-03-08T06:17:54.111Z,100.00
2023-03-08T06:20:20.746Z,100.00
2023-03-08T06:25:26.238Z,100.00
2023-03-08T06:27:52.741Z,100.00
2023-03-08T06:30:19.248Z,100.00
2023-03-08T06:32:46.862Z,100.00
2023-03-08T06:35:13.477Z,100.00
2023-03-08T06:37:54.042Z,100.00
2023-03-08T06:40:20.980Z,100.00
2023-03-08T06:42:47.505Z,100.00
2023-03-08T06:45:14.085Z,100.00
2023-03-08T06:47:40.629Z,100.00
2023-03-08T06:50:07.293Z,100.00
2023-03-08T06:52:37.718Z,100.00
2023-03-08T06:55:05.058Z,100.00
2023-03-08T06:57:31.602Z,100.00
2023-03-08T06:59:58.079Z,100.00
2023-03-08T07:02:24.635Z,100.00
2023-03-08T07:04:51.170Z,100.00
2023-03-08T07:07:17.782Z,100.00
2023-03-08T07:09:44.298Z,100.00
2023-03-08T07:12:10.850Z,100.00
2023-03-08T07:14:37.435Z,100.00
2023-03-08T07:17:03.977Z,100.00
2023-03-08T07:19:31.478Z,100.00
2023-03-08T07:21:58.016Z,100.00
2023-03-08T07:24:24.506Z,100.00
2023-03-08T07:26:51.019Z,100.00
2023-03-08T07:29:17.774Z,100.00
2023-03-08T07:31:44.332Z,100.00
2023-03-08T07:34:10.875Z,100.00
2023-03-08T07:36:39.866Z,100.00
2023-03-08T07:39:06.451Z,100.00
2023-03-08T07:41:34.776Z,100.00
2023-03-08T07:44:02.625Z,100.00
2023-03-08T07:46:29.599Z,100.00
2023-03-08T07:48:56.237Z,100.00
2023-03-08T07:51:22.861Z,100.00
2023-03-08T07:53:49.407Z,100.00
2023-03-08T07:56:15.973Z,100.00
2023-03-08T07:58:42.681Z,100.00
2023-03-08T08:01:10.661Z,100.00
2023-03-08T08:03:38.462Z,100.00
2023-03-08T08:06:06.124Z,100.00
2023-03-08T08:08:32.753Z,100.00
2023-03-08T08:10:59.305Z,100.00
2023-03-08T08:13:25.825Z,100.00
2023-03-08T08:15:59.888Z,100.00
2023-03-08T08:18:26.549Z,100.00
2023-03-08T08:21:06.821Z,100.00
2023-03-08T08:23:33.991Z,100.00
2023-03-08T08:26:01.045Z,100.00
2023-03-08T08:28:27.789Z,100.00
2023-03-08T08:31:01.941Z,100.00
2023-03-08T08:33:29.253Z,100.00
2023-03-08T08:35:55.914Z,100.00
2023-03-08T08:38:22.663Z,100.00
2023-03-08T08:40:49.366Z,100.00
2023-03-08T08:43:16.437Z,100.00
2023-03-08T08:45:46.677Z,100.00
2023-03-08T08:48:13.335Z,100.00
2023-03-08T08:50:40.796Z,100.00
2023-03-08T08:53:07.848Z,100.00
2023-03-08T08:55:34.569Z,100.00
2023-03-08T08:58:02.061Z,100.00
2023-03-08T09:00:29.011Z,100.00
2023-03-08T09:02:55.761Z,100.00
2023-03-08T09:05:22.427Z,100.00
2023-03-08T09:07:49.691Z,100.00
2023-03-08T09:10:16.681Z,100.00
2023-03-08T09:12:43.265Z,100.00
2023-03-08T09:15:11.671Z,100.00
2023-03-08T09:17:38.739Z,100.00
2023-03-08T09:20:11.831Z,100.00
2023-03-08T09:22:38.901Z,100.00
2023-03-08T09:25:06.412Z,98.33
2023-03-08T09:27:33.006Z,99.07
2023-03-08T09:29:59.549Z,91.01
2023-03-08T09:32:26.211Z,91.71
2023-03-08T09:34:53.506Z,87.04
2023-03-08T09:37:20.688Z,89.49
2023-03-08T09:39:50.615Z,92.40
2023-03-08T09:42:38.372Z,91.72
2023-03-08T09:45:23.584Z,91.97
2023-03-08T09:47:50.229Z,91.16
2023-03-08T09:50:25.400Z,94.48
2023-03-08T09:53:00.188Z,91.00
2023-03-08T09:55:34.742Z,95.03
2023-03-08T09:58:01.319Z,95.02
2023-03-08T10:00:37.626Z,93.40
2023-03-08T10:03:23.093Z,92.35
2023-03-08T10:05:55.225Z,96.39
2023-03-08T10:08:25.035Z,95.15
2023-03-08T10:10:57.443Z,95.48
2023-03-08T10:13:26.837Z,96.06
2023-03-08T10:15:57.682Z,95.74
2023-03-08T10:18:24.226Z,95.96
2023-03-08T10:20:50.994Z,94.41
2023-03-08T10:23:21.857Z,91.95
2023-03-08T10:25:49.189Z,89.63
2023-03-08T10:28:20.269Z,89.27
2023-03-08T10:30:51.286Z,88.29
2023-03-08T10:33:19.485Z,85.96
2023-03-08T10:36:03.076Z,83.33
2023-03-08T10:38:31.369Z,85.16
2023-03-08T10:41:28.289Z,81.75
2023-03-08T10:43:55.821Z,83.28
2023-03-08T10:46:24.199Z,83.38
2023-03-08T10:48:51.118Z,84.44
2023-03-08T10:51:24.868Z,83.33
2023-03-08T10:54:05.139Z,83.74
2023-03-08T10:56:38.061Z,80.42
2023-03-08T10:59:05.915Z,83.38
2023-03-08T11:01:33.630Z,87.16
2023-03-08T11:04:01.660Z,79.92
2023-03-08T11:06:28.240Z,80.79
2023-03-08T11:08:59.998Z,80.01
2023-03-08T11:11:27.150Z,79.58
2023-03-08T11:13:54.508Z,79.65
2023-03-08T11:16:30.214Z,79.24
2023-03-08T11:19:05.953Z,77.74
2023-03-08T11:21:35.765Z,80.25
2023-03-08T11:24:02.330Z,77.59
2023-03-08T11:26:48.519Z,79.05
2023-03-08T11:29:17.970Z,75.24
2023-03-08T11:31:44.521Z,75.23
2023-03-08T11:34:17.175Z,73.57
2023-03-08T11:36:49.610Z,71.68
2023-03-08T11:39:34.148Z,70.02
2023-03-08T11:42:01.230Z,67.54
2023-03-08T11:44:46.211Z,69.48
2023-03-08T11:47:28.138Z,66.26
2023-03-08T11:50:06.151Z,68.06
2023-03-08T11:52:46.959Z,66.67
2023-03-08T11:55:33.677Z,69.20
2023-03-08T11:58:23.593Z,67.76
2023-03-08T12:00:52.011Z,65.77
2023-03-08T12:03:20.374Z,65.55
2023-03-08T12:05:55.830Z,66.63
2023-03-08T12:08:29.415Z,65.96
2023-03-08T12:10:58.787Z,65.43
2023-03-08T12:13:30.471Z,66.14
2023-03-08T12:16:15.709Z,65.84
2023-03-08T12:18:46.819Z,68.03
2023-03-08T12:21:19.003Z,65.83
2023-03-08T12:23:50.989Z,62.55
2023-03-08T12:26:23.160Z,66.38
2023-03-08T12:28:59.440Z,65.78
2023-03-08T12:31:29.438Z,67.21
2023-03-08T12:33:57.886Z,66.16
2023-03-08T12:36:42.179Z,65.33
2023-03-08T12:39:10.604Z,69.53
2023-03-08T12:41:37.370Z,65.24
2023-03-08T12:44:23.462Z,65.73
2023-03-08T12:47:01.764Z,65.47
2023-03-08T12:49:34.596Z,65.98
2023-03-08T12:52:24.206Z,65.51
2023-03-08T12:54:57.050Z,65.41
2023-03-08T12:57:24.941Z,65.51
2023-03-08T13:00:06.347Z,66.17
2023-03-08T13:02:34.136Z,66.71
2023-03-08T13:05:03.946Z,67.57
2023-03-08T13:07:38.004Z,66.91
2023-03-08T13:10:09.114Z,66.02
2023-03-08T13:12:54.207Z,66.09
2023-03-08T13:15:24.907Z,68.62
2023-03-08T13:18:04.281Z,67.08
2023-03-08T13:20:43.248Z,65.32
2023-03-08T13:23:15.604Z,66.77
2023-03-08T13:26:17.348Z,65.53
2023-03-08T13:28:48.062Z,68.31
2023-03-08T13:31:19.585Z,67.42
2023-03-08T13:33:53.087Z,67.47
2023-03-08T13:36:21.440Z,69.12
2023-03-08T13:38:55.611Z,69.63
2023-03-08T13:41:33.913Z,70.38
2023-03-08T13:44:01.380Z,69.17
2023-03-08T13:46:27.995Z,69.14
2023-03-08T13:48:54.472Z,67.98
2023-03-08T13:51:24.400Z,70.33
2023-03-08T13:53:51.012Z,69.24
2023-03-08T13:56:27.914Z,69.67
2023-03-08T13:58:59.739Z,71.66
2023-03-08T14:01:26.644Z,69.45
2023-03-08T14:03:55.125Z,70.07
2023-03-08T14:06:21.653Z,71.33
2023-03-08T14:08:48.835Z,69.75
2023-03-08T14:11:17.953Z,68.89
2023-03-08T14:13:46.522Z,68.16
2023-03-08T14:16:23.966Z,69.00
2023-03-08T14:18:50.639Z,68.21
2023-03-08T14:21:18.437Z,69.04
2023-03-08T14:23:50.091Z,69.69
2023-03-08T14:26:26.260Z,69.82
2023-03-08T14:29:11.027Z,70.78
2023-03-08T14:31:39.198Z,70.72
2023-03-08T14:34:17.773Z,70.86
2023-03-08T14:36:53.537Z,69.47
2023-03-08T14:39:20.048Z,70.98
2023-03-08T14:41:46.630Z,74.09
2023-03-08T14:44:19.629Z,75.57
2023-03-08T14:46:46.305Z,77.59
2023-03-08T14:49:22.862Z,79.16
2023-03-08T14:51:49.856Z,80.52
2023-03-08T14:54:33.323Z,82.42
2023-03-08T14:57:20.197Z,83.09
2023-03-08T14:59:47.129Z,84.87
2023-03-08T15:02:15.180Z,84.17
2023-03-08T15:04:42.199Z,84.91
2023-03-08T15:07:14.859Z,84.96
2023-03-08T15:09:41.396Z,86.18
2023-03-08T15:12:09.445Z,89.65
2023-03-08T15:14:35.962Z,89.19
2023-03-08T15:17:03.482Z,88.51
2023-03-08T15:19:30.026Z,88.35
2023-03-08T15:21:56.574Z,90.44
2023-03-08T15:24:23.449Z,90.96
2023-03-08T15:26:50.035Z,93.19
2023-03-08T15:29:23.988Z,94.78
2023-03-08T15:31:50.493Z,95.48
2023-03-08T15:34:16.994Z,93.77
2023-03-08T15:36:43.557Z,94.26
2023-03-08T15:39:13.185Z,94.95
2023-03-08T15:41:39.700Z,95.07
2023-03-08T15:44:06.288Z,96.55
2023-03-08T15:46:32.792Z,96.41
2023-03-08T15:48:59.318Z,96.41
2023-03-08T15:51:29.183Z,97.12
2023-03-08T15:53:55.709Z,97.20
2023-03-08T15:56:22.860Z,97.48
2023-03-08T15:58:49.387Z,98.58
2023-03-08T16:01:15.878Z,99.23
2023-03-08T16:03:42.405Z,100.00
2023-03-08T16:06:12.684Z,100.00
2023-03-08T16:08:39.534Z,100.00
2023-03-08T16:11:07.017Z,100.00
2023-03-08T16:13:33.563Z,99.53
2023-03-08T16:16:01.017Z,99.49
2023-03-08T16:18:28.676Z,100.00
2023-03-08T16:20:55.234Z,100.00
2023-03-08T16:23:22.170Z,100.00
2023-03-08T16:26:13.617Z,99.74
2023-03-08T16:28:41.612Z,99.80
2023-03-08T16:31:09.251Z,100.00
2023-03-08T16:33:36.680Z,100.00
2023-03-08T16:36:03.808Z,100.00
2023-03-08T16:38:30.397Z,99.85
2023-03-08T16:41:11.509Z,100.00
2023-03-08T16:43:46.290Z,100.00
2023-03-08T16:46:18.077Z,100.00
2023-03-08T16:48:44.745Z,100.00
2023-03-08T16:51:15.156Z,100.00
2023-03-08T16:53:41.996Z,100.00
2023-03-08T16:56:08.603Z,100.00
2023-03-08T16:58:35.152Z,100.00
2023-03-08T17:01:02.026Z,100.00
2023-03-08T17:03:28.544Z,100.00
2023-03-08T17:05:55.053Z,100.00
2023-03-08T17:08:21.567Z,100.00
2023-03-08T17:10:48.076Z,100.00
2023-03-08T17:13:14.622Z,100.00
2023-03-08T17:15:42.335Z,100.00
2023-03-08T17:18:09.746Z,100.00
2023-03-08T17:20:40.811Z,100.00
2023-03-08T17:23:07.706Z,100.00
2023-03-08T17:25:35.680Z,100.00
2023-03-08T17:28:03.697Z,100.00
2023-03-08T17:30:30.789Z,100.00
2023-03-08T17:32:57.875Z,100.00
2023-03-08T17:35:25.236Z,100.00
2023-03-08T17:37:51.981Z,100.00
2023-03-08T17:40:19.310Z,100.00
2023-03-08T17:42:48.743Z,100.00
2023-03-08T17:45:16.115Z,100.00
2023-03-08T17:47:42.645Z,100.00
2023-03-08T17:50:10.281Z,100.00
2023-03-08T17:52:36.867Z,100.00
2023-03-08T17:55:03.437Z,100.00
2023-03-08T17:57:29.944Z,100.00
2023-03-08T17:59:56.461Z,100.00
2023-03-08T18:02:23.065Z,100.00
2023-03-08T18:04:50.715Z,100.00
2023-03-08T18:07:18.109Z,100.00
2023-03-08T18:09:48.416Z,100.00
2023-03-08T18:12:15.142Z,100.00
2023-03-08T18:14:41.797Z,100.00
2023-03-08T18:17:08.813Z,100.00
2023-03-08T18:19:35.320Z,100.00
2023-03-08T18:22:04.336Z,100.00
2023-03-08T18:24:30.896Z,100.00
2023-03-08T18:26:58.144Z,100.00
2023-03-08T18:29:24.672Z,100.00
2023-03-08T18:31:51.170Z,100.00
2023-03-08T18:34:17.670Z,100.00
2023-03-08T18:36:44.575Z,100.00
2023-03-08T18:39:12.324Z,100.00
2023-03-08T18:41:39.444Z,100.00
2023-03-08T18:44:06.222Z,100.00
2023-03-08T18:46:33.895Z,100.00
2023-03-08T18:49:01.890Z,100.00
2023-03-08T18:51:29.050Z,100.00
2023-03-08T18:53:56.131Z,100.00
2023-03-08T18:56:24.550Z,100.00
2023-03-08T18:58:51.273Z,100.00
2023-03-08T19:01:18.069Z,100.00
2023-03-08T19:03:45.034Z,100.00
2023-03-08T19:06:12.296Z,100.00
2023-03-08T19:08:38.879Z,100.00
2023-03-08T19:11:13.373Z,100.00
2023-03-08T19:13:40.452Z,100.00
2023-03-08T19:16:16.573Z,100.00
2023-03-08T19:18:43.127Z,100.00
2023-03-08T19:21:16.627Z,100.00
2023-03-08T19:23:43.206Z,100.00
2023-03-08T19:26:36.048Z,100.00
2023-03-08T19:29:04.451Z,100.00
2023-03-08T19:31:31.966Z,100.00
2023-03-08T19:33:58.684Z,100.00
2023-03-08T19:36:25.221Z,100.00
2023-03-08T19:38:51.739Z,100.00
2023-03-08T19:41:18.326Z,100.00
2023-03-08T19:43:44.822Z,100.00
2023-03-08T19:46:11.430Z,100.00
2023-03-08T19:48:38.008Z,100.00
2023-03-08T19:51:04.958Z,100.00
2023-03-08T19:53:31.508Z,100.00
2023-03-08T19:55:58.081Z,100.00
2023-03-08T19:58:24.791Z,100.00
2023-03-08T20:01:00.706Z,100.00
2023-03-08T20:03:27.273Z,100.00
2023-03-08T20:08:34.329Z,100.00
2023-03-08T20:11:00.875Z,100.00
2023-03-08T20:13:28.128Z,100.00
2023-03-08T20:15:55.201Z,100.00
2023-03-08T20:18:21.799Z,100.00
2023-03-08T20:20:48.494Z,100.00
2023-03-08T20:23:15.022Z,100.00
2023-03-08T20:25:43.235Z,100.00
2023-03-08T20:28:10.277Z,100.00
2023-03-08T20:30:37.493Z,100.00
2023-03-08T20:33:04.109Z,100.00
2023-03-08T20:35:30.660Z,100.00
2023-03-08T20:37:57.264Z,100.00
2023-03-08T20:40:23.789Z,100.00
2023-03-08T20:42:50.299Z,100.00
2023-03-08T20:45:17.048Z,100.00
2023-03-08T20:47:43.685Z,100.00
2023-03-08T20:50:10.587Z,100.00
2023-03-08T20:52:37.116Z,100.00
2023-03-08T20:55:04.141Z,100.00
2023-03-08T20:57:30.795Z,100.00
2023-03-08T20:59:57.361Z,100.00
2023-03-08T21:03:49.120Z,100.00
2023-03-08T21:06:18.856Z,100.00
2023-03-08T21:08:45.511Z,100.00
2023-03-08T21:11:12.017Z,100.00
2023-03-08T21:13:38.785Z,100.00
2023-03-08T21:16:06.977Z,100.00
2023-03-08T21:18:33.636Z,100.00
2023-03-08T21:21:00.178Z,100.00
2023-03-08T21:23:27.298Z,100.00
2023-03-08T21:25:54.237Z,100.00
2023-03-08T21:28:21.557Z,100.00
2023-03-08T21:30:48.435Z,100.00
2023-03-08T21:33:14.985Z,100.00
2023-03-08T21:35:42.071Z,100.00
2023-03-08T21:38:09.022Z,100.00
2023-03-08T21:40:39.157Z,100.00
2023-03-08T21:43:05.962Z,100.00
2023-03-08T21:45:32.786Z,100.00
2023-03-08T21:47:59.708Z,100.00
2023-03-08T21:52:34.499Z,100.00
2023-03-08T21:55:00.993Z,100.00
2023-03-08T21:57:27.530Z,100.00
2023-03-08T21:59:54.050Z,100.00
2023-03-08T22:02:20.526Z,100.00
2023-03-08T22:04:47.077Z,100.00
2023-03-08T22:07:13.579Z,100.00
2023-03-08T22:09:40.061Z,100.00
2023-03-08T22:12:07.166Z,100.00
2023-03-08T22:14:33.747Z,100.00
2023-03-08T22:17:00.713Z,100.00
2023-03-08T22:19:27.189Z,100.00
2023-03-08T22:21:53.735Z,100.00
2023-03-08T22:24:20.235Z,100.00
2023-03-08T22:26:46.764Z,100.00
2023-03-08T22:29:13.244Z,100.00
2023-03-08T22:31:39.996Z,100.00
2023-03-08T22:34:07.778Z,100.00
2023-03-08T22:36:34.358Z,100.00
2023-03-08T22:39:00.909Z,100.00
2023-03-08T22:41:27.907Z,100.00
2023-03-08T22:43:54.532Z,100.00
2023-03-08T22:46:22.823Z,100.00
2023-03-08T22:50:05.536Z,100.00
2023-03-08T22:52:32.151Z,100.00
2023-03-08T22:54:58.668Z,100.00
2023-03-08T22:57:25.322Z,100.00
2023-03-08T22:59:55.505Z,100.00
2023-03-08T23:02:22.036Z,100.00
2023-03-08T23:07:28.445Z,100.00
2023-03-08T23:09:54.940Z,100.00
2023-03-08T23:12:21.445Z,100.00
2023-03-08T23:14:47.969Z,100.00
2023-03-08T23:17:14.444Z,100.00
2023-03-08T23:19:45.198Z,100.00
2023-03-08T23:22:12.429Z,100.00
2023-03-08T23:24:38.943Z,100.00
2023-03-08T23:27:05.962Z,100.00
2023-03-08T23:29:32.560Z,100.00
2023-03-08T23:31:59.094Z,100.00
2023-03-08T23:34:25.616Z,100.00
2023-03-08T23:36:52.184Z,100.00
2023-03-08T23:39:18.701Z,100.00
2023-03-08T23:41:45.355Z,100.00
2023-03-08T23:44:12.068Z,100.00
2023-03-08T23:46:38.776Z,100.00
2023-03-08T23:49:05.390Z,100.00
2023-03-08T23:51:32.601Z,100.00
2023-03-08T23:54:53.619Z,100.00
2023-03-08T23:57:20.309Z,100.00
2023-03-08T23:59:46.842Z,100.00
